Time;durP1;ratioP1;P1;durP2;ratioP2;P2;SDS_P1;SDS_P2;PMS_P1;PMS_P2;Temp;Humidity;BMP_temperature;BMP_pressure;BME280_temperature;BME280_humidity;BME280_pressure;Samples;Min_cycle;Max_cycle;Signal;HPM_P1;HPM_P2
2022/10/08 00:01:11;;;;;;;10.02;5.60;;;;;;;;;;4885422;29;20029;-76
2022/10/08 00:03:39;;;;;;;8.52;5.90;;;;;;;;;;4883016;29;20467;-75
2022/10/08 00:06:13;;;;;;;11.00;5.78;;;;;;;;;;4865226;29;20128;-75
2022/10/08 00:08:41;;;;;;;8.50;5.80;;;;;;;;;;4887802;29;20104;-75
2022/10/08 00:11:12;;;;;;;13.57;6.63;;;;;;;;;;4882448;29;20440;-76
2022/10/08 00:13:46;;;;;;;11.93;5.70;;;;;;;;;;4882695;29;20494;-75
2022/10/08 00:16:24;;;;;;;7.97;5.72;;;;;;;;;;4881869;29;20067;-76
2022/10/08 00:18:52;;;;;;;10.45;5.97;;;;;;;;;;4879814;29;20021;-75
2022/10/08 00:21:19;;;;;;;11.32;5.55;;;;;;;;;;4880782;29;20033;-75
2022/10/08 00:23:50;;;;;;;9.82;5.85;;;;;;;;;;4881723;29;20029;-76
2022/10/08 00:26:17;;;;;;;10.23;5.40;;;;;;;;;;4882101;29;20036;-75
2022/10/08 00:28:45;;;;;;;9.90;5.72;;;;;;;;;;4881481;29;20435;-75
2022/10/08 00:31:15;;;;;;;7.72;5.50;;;;;;;;;;4881429;29;20037;-75
2022/10/08 00:33:42;;;;;;;9.63;5.88;;;;;;;;;;4882037;29;20025;-75
2022/10/08 00:36:10;;;;;;;9.02;5.53;;;;;;;;;;4881980;29;20036;-76
2022/10/08 00:38:36;;;;;;;9.95;5.95;;;;;;;;;;4882203;29;20432;-75
2022/10/08 00:41:04;;;;;;;7.82;5.93;;;;;;;;;;4882367;29;20037;-75
2022/10/08 00:43:44;;;;;;;9.63;6.35;;;;;;;;;;4880566;29;20033;-75
2022/10/08 00:46:20;;;;;;;10.73;6.18;;;;;;;;;;4881262;29;20025;-74
2022/10/08 00:48:46;;;;;;;8.48;6.22;;;;;;;;;;4880154;29;20029;-75
2022/10/08 00:51:12;;;;;;;9.55;6.10;;;;;;;;;;4882082;29;20042;-76
2022/10/08 00:53:38;;;;;;;10.18;6.22;;;;;;;;;;4882169;29;20032;-76
2022/10/08 00:56:05;;;;;;;8.25;5.90;;;;;;;;;;4881466;29;20550;-75
2022/10/08 00:58:31;;;;;;;9.98;6.00;;;;;;;;;;4863413;29;20037;-75
2022/10/08 01:00:57;;;;;;;10.15;6.05;;;;;;;;;;4880412;29;20388;-76
2022/10/08 01:03:23;;;;;;;10.15;6.30;;;;;;;;;;4879835;29;20474;-76
2022/10/08 01:05:55;;;;;;;9.50;5.38;;;;;;;;;;4887607;29;20040;-75
2022/10/08 01:08:21;;;;;;;12.07;6.03;;;;;;;;;;4885607;29;20558;-76
2022/10/08 01:10:50;;;;;;;9.35;5.57;;;;;;;;;;4880875;29;20033;-75
2022/10/08 01:13:35;;;;;;;12.48;5.97;;;;;;;;;;4880573;29;20032;-75
2022/10/08 01:16:07;;;;;;;10.65;5.50;;;;;;;;;;4879962;29;20085;-75
2022/10/08 01:18:36;;;;;;;9.25;5.75;;;;;;;;;;4879371;29;20053;-75
2022/10/08 01:21:05;;;;;;;9.32;5.80;;;;;;;;;;4878482;29;20029;-75
2022/10/08 01:23:34;;;;;;;9.98;6.38;;;;;;;;;;4880028;29;20024;-75
2022/10/08 01:26:07;;;;;;;9.88;6.20;;;;;;;;;;4876826;29;20028;-74
2022/10/08 01:28:45;;;;;;;7.30;5.70;;;;;;;;;;4880003;29;20120;-75
2022/10/08 01:31:14;;;;;;;10.65;6.07;;;;;;;;;;4878750;29;20822;-75
2022/10/08 01:33:49;;;;;;;7.55;5.68;;;;;;;;;;4879727;29;20500;-76
2022/10/08 01:36:17;;;;;;;11.00;6.32;;;;;;;;;;4880273;29;20040;-75
2022/10/08 01:38:51;;;;;;;12.32;6.00;;;;;;;;;;4881048;29;20025;-76
2022/10/08 01:41:18;;;;;;;8.48;5.20;;;;;;;;;;4865248;29;20101;-75
2022/10/08 01:43:46;;;;;;;10.52;5.78;;;;;;;;;;4879571;29;20498;-75
2022/10/08 01:46:22;;;;;;;9.98;6.13;;;;;;;;;;4878532;29;20382;-76
2022/10/08 01:48:50;;;;;;;9.32;6.18;;;;;;;;;;4879690;29;20035;-75
2022/10/08 01:51:22;;;;;;;11.48;5.80;;;;;;;;;;4874957;29;20047;-75
2022/10/08 01:53:49;;;;;;;7.47;5.80;;;;;;;;;;4879216;29;20530;-76
2022/10/08 01:56:28;;;;;;;9.02;5.22;;;;;;;;;;4885540;29;20171;-76
2022/10/08 01:58:57;;;;;;;8.43;5.60;;;;;;;;;;4865081;29;20384;-75
2022/10/08 02:01:27;;;;;;;10.43;5.70;;;;;;;;;;4881647;29;20542;-75
2022/10/08 02:06:40;;;;;;;9.65;5.40;;;;;;;;;;4878170;29;20054;-75
2022/10/08 02:09:06;;;;;;;9.23;5.60;;;;;;;;;;4879797;29;20451;-76
2022/10/08 02:11:34;;;;;;;12.25;5.88;;;;;;;;;;4862054;29;20076;-76
2022/10/08 02:14:00;;;;;;;9.98;6.93;;;;;;;;;;4882174;29;20089;-75
2022/10/08 02:16:29;;;;;;;11.45;6.88;;;;;;;;;;4879501;29;20040;-75
2022/10/08 02:19:08;;;;;;;8.93;7.15;;;;;;;;;;4863160;29;20089;-75
2022/10/08 02:21:36;;;;;;;10.32;7.80;;;;;;;;;;4885941;29;20029;-76
2022/10/08 02:24:19;;;;;;;14.18;8.30;;;;;;;;;;4878426;29;20486;-76
2022/10/08 02:26:50;;;;;;;11.40;7.83;;;;;;;;;;4878866;29;20116;-75
2022/10/08 02:29:19;;;;;;;11.52;7.97;;;;;;;;;;4877856;29;20097;-76
2022/10/08 02:31:53;;;;;;;9.95;7.65;;;;;;;;;;4879192;29;20033;-75
2022/10/08 02:34:22;;;;;;;9.85;7.50;;;;;;;;;;4862461;29;20088;-75
2022/10/08 02:37:00;;;;;;;9.48;7.40;;;;;;;;;;4879159;29;20031;-75
2022/10/08 02:39:28;;;;;;;14.02;7.53;;;;;;;;;;4876694;29;20040;-75
2022/10/08 02:41:56;;;;;;;12.20;8.32;;;;;;;;;;4879387;29;20064;-76
2022/10/08 02:44:28;;;;;;;12.45;7.80;;;;;;;;;;4877445;29;20042;-76
2022/10/08 02:46:57;;;;;;;12.15;6.68;;;;;;;;;;4878863;29;20102;-76
2022/10/08 02:49:27;;;;;;;10.00;7.13;;;;;;;;;;4878725;29;20112;-76
2022/10/08 02:51:54;;;;;;;10.73;7.15;;;;;;;;;;4878670;29;20515;-75
2022/10/08 02:54:22;;;;;;;10.73;7.22;;;;;;;;;;4879091;29;20033;-76
2022/10/08 02:56:54;;;;;;;14.00;7.57;;;;;;;;;;4878446;29;20395;-76
2022/10/08 02:59:21;;;;;;;16.27;8.25;;;;;;;;;;4877123;29;20076;-75
2022/10/08 03:01:56;;;;;;;12.50;8.32;;;;;;;;;;4875237;29;20108;-76
2022/10/08 03:04:28;;;;;;;16.35;8.93;;;;;;;;;;4878197;29;20029;-75
2022/10/08 03:06:56;;;;;;;15.52;8.77;;;;;;;;;;4878318;29;20395;-76
2022/10/08 03:09:23;;;;;;;16.50;9.60;;;;;;;;;;4879220;29;20048;-76
2022/10/08 03:11:50;;;;;;;17.02;9.38;;;;;;;;;;4877644;29;20088;-76
2022/10/08 03:14:18;;;;;;;15.00;9.93;;;;;;;;;;4878319;29;20487;-75
2022/10/08 03:16:45;;;;;;;16.33;10.40;;;;;;;;;;4878749;29;20025;-75
2022/10/08 03:19:12;;;;;;;15.13;10.18;;;;;;;;;;4873822;29;20170;-75
2022/10/08 03:21:39;;;;;;;14.57;9.88;;;;;;;;;;4878516;29;20141;-75
2022/10/08 03:24:09;;;;;;;17.65;9.90;;;;;;;;;;4879043;29;20033;-76
2022/10/08 03:26:35;;;;;;;14.52;10.73;;;;;;;;;;4878711;29;20041;-75
2022/10/08 03:29:02;;;;;;;15.48;9.75;;;;;;;;;;4878598;29;20025;-76
2022/10/08 03:31:28;;;;;;;12.80;9.35;;;;;;;;;;4877280;29;20037;-75
2022/10/08 03:33:54;;;;;;;12.38;8.80;;;;;;;;;;4878156;29;20047;-75
2022/10/08 03:36:21;;;;;;;14.10;9.65;;;;;;;;;;4878443;29;20021;-75
2022/10/08 03:38:48;;;;;;;16.02;9.23;;;;;;;;;;4880122;29;20040;-75
2022/10/08 03:41:15;;;;;;;11.50;8.15;;;;;;;;;;4865736;29;20116;-75
2022/10/08 03:43:41;;;;;;;13.32;8.57;;;;;;;;;;4880811;29;20032;-75
2022/10/08 03:46:08;;;;;;;15.18;8.85;;;;;;;;;;4882153;29;20036;-76
2022/10/08 03:48:34;;;;;;;14.77;9.15;;;;;;;;;;4880914;29;20054;-75
2022/10/08 03:51:02;;;;;;;12.60;8.70;;;;;;;;;;4879616;29;20037;-75
2022/10/08 03:53:28;;;;;;;11.40;8.80;;;;;;;;;;4881822;29;20049;-76
2022/10/08 03:55:54;;;;;;;16.02;9.23;;;;;;;;;;4881938;29;20049;-76
2022/10/08 03:58:20;;;;;;;12.77;9.50;;;;;;;;;;4865056;29;20064;-76
2022/10/08 04:00:59;;;;;;;15.52;9.43;;;;;;;;;;4883164;29;20500;-75
2022/10/08 04:03:26;;;;;;;16.48;10.02;;;;;;;;;;4875019;29;20033;-75
2022/10/08 04:05:52;;;;;;;18.63;9.50;;;;;;;;;;4881406;29;20052;-75
2022/10/08 04:08:18;;;;;;;13.88;9.35;;;;;;;;;;4880232;29;20070;-75
2022/10/08 04:10:44;;;;;;;16.55;9.63;;;;;;;;;;4880971;29;20584;-76
2022/10/08 04:13:10;;;;;;;10.63;8.23;;;;;;;;;;4880519;29;20029;-76
2022/10/08 04:15:36;;;;;;;13.85;9.35;;;;;;;;;;4881313;29;20058;-75
2022/10/08 04:18:03;;;;;;;15.70;9.30;;;;;;;;;;4881427;29;20095;-76
2022/10/08 04:20:29;;;;;;;14.60;8.80;;;;;;;;;;4881244;29;20534;-76
2022/10/08 04:22:55;;;;;;;12.60;9.20;;;;;;;;;;4880558;29;20033;-75
2022/10/08 04:25:21;;;;;;;12.88;9.25;;;;;;;;;;4880920;29;20033;-76
2022/10/08 04:27:48;;;;;;;15.73;9.25;;;;;;;;;;4879961;29;20041;-75
2022/10/08 04:30:15;;;;;;;14.18;9.95;;;;;;;;;;4880323;29;20025;-74
2022/10/08 04:32:41;;;;;;;15.63;9.15;;;;;;;;;;4880817;29;20037;-74
2022/10/08 04:35:07;;;;;;;15.60;9.82;;;;;;;;;;4880523;29;20514;-74
2022/10/08 04:37:34;;;;;;;13.10;9.20;;;;;;;;;;4880150;29;20029;-77
2022/10/08 04:40:00;;;;;;;15.35;9.25;;;;;;;;;;4880851;29;20029;-76
2022/10/08 04:42:26;;;;;;;17.58;9.48;;;;;;;;;;4880614;29;20086;-75
2022/10/08 04:44:52;;;;;;;12.00;9.35;;;;;;;;;;4880364;29;20033;-75
2022/10/08 04:47:18;;;;;;;15.15;9.02;;;;;;;;;;4864439;29;20041;-75
2022/10/08 04:49:44;;;;;;;12.35;9.05;;;;;;;;;;4880192;29;20056;-75
2022/10/08 04:52:12;;;;;;;14.20;8.63;;;;;;;;;;4877214;29;20057;-75
2022/10/08 04:54:38;;;;;;;17.42;9.48;;;;;;;;;;4879889;29;20033;-75
2022/10/08 04:57:04;;;;;;;17.23;8.73;;;;;;;;;;4880782;29;20017;-75
2022/10/08 04:59:30;;;;;;;13.55;9.57;;;;;;;;;;4880248;29;20033;-75
2022/10/08 05:01:56;;;;;;;15.13;9.20;;;;;;;;;;4859917;29;20052;-75
2022/10/08 05:04:23;;;;;;;16.75;9.23;;;;;;;;;;4854393;29;20487;-75
2022/10/08 05:06:49;;;;;;;11.98;8.77;;;;;;;;;;4875678;29;20067;-76
2022/10/08 05:09:15;;;;;;;13.48;8.32;;;;;;;;;;4876393;29;20025;-75
2022/10/08 05:11:41;;;;;;;14.77;8.60;;;;;;;;;;4882655;29;20044;-75
2022/10/08 05:14:08;;;;;;;14.07;8.95;;;;;;;;;;4879699;29;20081;-76
2022/10/08 05:16:35;;;;;;;12.88;8.35;;;;;;;;;;4878998;29;20033;-76
2022/10/08 05:19:01;;;;;;;12.95;8.50;;;;;;;;;;4880232;29;20104;-76
2022/10/08 05:21:29;;;;;;;14.88;8.85;;;;;;;;;;4877648;29;20788;-75
2022/10/08 05:23:56;;;;;;;17.50;8.85;;;;;;;;;;4878975;29;20099;-75
2022/10/08 05:26:24;;;;;;;15.50;8.73;;;;;;;;;;4876466;29;20442;-75
2022/10/08 05:28:55;;;;;;;12.35;8.18;;;;;;;;;;4862011;29;20407;-76
2022/10/08 05:31:21;;;;;;;10.57;7.90;;;;;;;;;;4862258;29;20037;-76
2022/10/08 05:33:47;;;;;;;15.40;8.40;;;;;;;;;;4860400;29;20037;-76
2022/10/08 05:36:21;;;;;;;12.30;7.60;;;;;;;;;;4877399;29;20025;-75
2022/10/08 05:38:47;;;;;;;14.00;8.52;;;;;;;;;;4877388;29;20032;-76
2022/10/08 05:41:16;;;;;;;13.70;8.20;;;;;;;;;;4876632;29;20032;-74
2022/10/08 05:43:42;;;;;;;11.40;8.43;;;;;;;;;;4879037;29;20033;-75
2022/10/08 05:46:09;;;;;;;12.95;8.73;;;;;;;;;;4879666;29;20021;-75
2022/10/08 05:48:36;;;;;;;10.05;8.07;;;;;;;;;;4879901;29;20037;-75
2022/10/08 05:51:05;;;;;;;16.60;8.20;;;;;;;;;;4879604;29;20041;-75
2022/10/08 05:53:33;;;;;;;14.68;7.38;;;;;;;;;;4879889;29;20054;-76
2022/10/08 05:56:00;;;;;;;13.95;7.95;;;;;;;;;;4875972;29;20029;-75
2022/10/08 05:58:26;;;;;;;9.05;6.88;;;;;;;;;;4879696;29;20440;-75
2022/10/08 06:01:02;;;;;;;10.50;7.00;;;;;;;;;;4876154;29;20025;-75
2022/10/08 06:03:29;;;;;;;10.88;6.45;;;;;;;;;;4878204;29;20033;-76
2022/10/08 06:05:55;;;;;;;12.93;6.43;;;;;;;;;;4877746;29;20048;-76
2022/10/08 06:08:22;;;;;;;9.85;6.53;;;;;;;;;;4878065;29;20037;-76
2022/10/08 06:10:51;;;;;;;11.25;6.07;;;;;;;;;;4876541;29;20082;-75
2022/10/08 06:13:18;;;;;;;10.25;5.72;;;;;;;;;;4880457;29;20041;-75
2022/10/08 06:15:53;;;;;;;7.03;5.82;;;;;;;;;;4876655;29;20029;-75
2022/10/08 06:18:19;;;;;;;8.80;5.80;;;;;;;;;;4879348;29;20509;-76
2022/10/08 06:20:45;;;;;;;10.15;6.20;;;;;;;;;;4880548;29;20390;-74
2022/10/08 06:23:11;;;;;;;9.27;5.97;;;;;;;;;;4880324;29;20064;-74
2022/10/08 06:25:37;;;;;;;9.65;5.90;;;;;;;;;;4880779;29;20017;-75
2022/10/08 06:28:03;;;;;;;15.02;5.75;;;;;;;;;;4879597;29;20069;-75
2022/10/08 06:30:29;;;;;;;9.18;5.82;;;;;;;;;;4880749;29;20107;-76
2022/10/08 06:32:55;;;;;;;8.15;5.30;;;;;;;;;;4879725;29;20033;-75
2022/10/08 06:35:21;;;;;;;6.65;4.70;;;;;;;;;;4862513;29;20036;-75
2022/10/08 06:37:48;;;;;;;12.90;4.90;;;;;;;;;;4862119;29;20036;-75
2022/10/08 06:40:14;;;;;;;6.07;4.55;;;;;;;;;;4874258;29;20030;-75
2022/10/08 06:42:40;;;;;;;8.70;5.30;;;;;;;;;;4873741;29;20085;-76
2022/10/08 06:45:07;;;;;;;9.25;5.43;;;;;;;;;;4874964;29;20554;-75
2022/10/08 06:47:33;;;;;;;11.77;5.20;;;;;;;;;;4877311;29;20128;-75
2022/10/08 06:50:00;;;;;;;9.65;5.03;;;;;;;;;;4878519;29;20029;-78
2022/10/08 06:52:26;;;;;;;7.97;5.22;;;;;;;;;;4876339;29;20140;-76
2022/10/08 06:54:52;;;;;;;5.82;4.85;;;;;;;;;;4877190;29;20112;-76
2022/10/08 06:57:18;;;;;;;7.85;5.13;;;;;;;;;;4877028;29;20029;-75
2022/10/08 06:59:44;;;;;;;9.02;4.85;;;;;;;;;;4878788;29;20494;-78
2022/10/08 07:02:10;;;;;;;8.27;4.72;;;;;;;;;;4873257;29;20483;-75
2022/10/08 07:04:37;;;;;;;9.02;4.70;;;;;;;;;;4879543;29;20040;-76
2022/10/08 07:07:03;;;;;;;9.32;5.38;;;;;;;;;;4877669;29;20041;-74
2022/10/08 07:09:29;;;;;;;7.10;4.75;;;;;;;;;;4879025;29;20372;-76
2022/10/08 07:11:55;;;;;;;8.13;5.30;;;;;;;;;;4878374;29;20021;-75
2022/10/08 07:14:22;;;;;;;10.10;5.40;;;;;;;;;;4881301;29;20033;-76
2022/10/08 07:16:48;;;;;;;10.02;4.78;;;;;;;;;;4882691;29;20021;-76
2022/10/08 07:19:14;;;;;;;8.90;5.03;;;;;;;;;;4881900;29;20118;-75
2022/10/08 07:21:40;;;;;;;5.65;4.95;;;;;;;;;;4882543;29;20025;-75
2022/10/08 07:24:07;;;;;;;6.85;4.80;;;;;;;;;;4881002;29;20532;-76
2022/10/08 07:26:34;;;;;;;8.43;4.85;;;;;;;;;;4882396;29;20044;-76
2022/10/08 07:29:07;;;;;;;10.20;5.13;;;;;;;;;;4882033;29;20101;-76
2022/10/08 07:31:35;;;;;;;6.57;4.97;;;;;;;;;;4881930;29;20036;-77
2022/10/08 07:34:07;;;;;;;9.52;5.40;;;;;;;;;;4876599;29;20055;-76
2022/10/08 07:36:33;;;;;;;10.23;5.32;;;;;;;;;;4882201;29;20029;-78
2022/10/08 07:39:01;;;;;;;7.55;4.68;;;;;;;;;;4865900;29;20093;-78
2022/10/08 07:41:28;;;;;;;5.75;4.50;;;;;;;;;;4872309;29;20066;-78
2022/10/08 07:43:58;;;;;;;7.85;4.88;;;;;;;;;;4883410;29;20025;-75
2022/10/08 07:46:26;;;;;;;7.05;5.05;;;;;;;;;;4881693;29;20107;-77
2022/10/08 07:48:54;;;;;;;9.05;5.00;;;;;;;;;;4870108;29;20033;-76
2022/10/08 07:51:20;;;;;;;14.48;5.15;;;;;;;;;;4892508;29;20124;-77
2022/10/08 07:53:47;;;;;;;8.88;5.28;;;;;;;;;;4884425;29;20509;-77
2022/10/08 07:56:14;;;;;;;8.70;5.00;;;;;;;;;;4887598;29;20025;-76
2022/10/08 07:58:40;;;;;;;8.02;5.20;;;;;;;;;;4883046;29;20049;-77
2022/10/08 08:01:08;;;;;;;8.63;4.78;;;;;;;;;;4881387;29;20025;-77
2022/10/08 08:03:35;;;;;;;7.63;5.30;;;;;;;;;;4881085;29;20104;-76
2022/10/08 08:06:05;;;;;;;9.27;5.15;;;;;;;;;;4881471;29;20501;-77
2022/10/08 08:08:31;;;;;;;10.73;5.65;;;;;;;;;;4881240;29;20041;-76
2022/10/08 08:11:01;;;;;;;11.60;5.18;;;;;;;;;;4882343;29;20041;-76
2022/10/08 08:13:28;;;;;;;9.05;5.43;;;;;;;;;;4865288;29;20029;-76
2022/10/08 08:16:02;;;;;;;19.00;10.10;;;;;;;;;;4880818;29;20510;-75
2022/10/08 08:18:28;;;;;;;9.90;5.53;;;;;;;;;;4881949;29;20093;-77
2022/10/08 08:21:01;;;;;;;11.70;5.18;;;;;;;;;;4881612;29;20029;-77
2022/10/08 08:23:28;;;;;;;9.13;5.45;;;;;;;;;;4880919;29;20029;-76
2022/10/08 08:25:54;;;;;;;8.38;5.35;;;;;;;;;;4864518;29;20077;-76
2022/10/08 08:28:22;;;;;;;6.25;4.90;;;;;;;;;;4881241;29;20037;-76
2022/10/08 08:30:48;;;;;;;7.30;4.43;;;;;;;;;;4864850;29;20133;-76
2022/10/08 08:33:14;;;;;;;5.28;4.28;;;;;;;;;;4879997;29;20037;-76
2022/10/08 08:35:49;;;;;;;13.13;4.07;;;;;;;;;;4881192;29;20111;-76
2022/10/08 08:38:15;;;;;;;7.40;4.10;;;;;;;;;;4881880;29;20025;-76
2022/10/08 08:40:41;;;;;;;13.80;4.40;;;;;;;;;;4881269;29;20387;-76
2022/10/08 08:43:07;;;;;;;4.82;3.78;;;;;;;;;;4880617;29;20077;-76
2022/10/08 08:45:35;;;;;;;7.55;4.13;;;;;;;;;;4880801;29;20098;-76
2022/10/08 08:48:37;;;;;;;7.35;4.32;;;;;;;;;;4878856;29;20488;-76
2022/10/08 08:51:03;;;;;;;11.52;4.72;;;;;;;;;;4824007;29;20120;-76
2022/10/08 08:53:30;;;;;;;7.50;4.20;;;;;;;;;;4840825;29;20113;-76
2022/10/08 08:55:58;;;;;;;7.80;5.63;;;;;;;;;;4841251;29;20079;-76
2022/10/08 08:58:34;;;;;;;8.43;4.22;;;;;;;;;;4840732;29;20182;-76
2022/10/08 09:01:11;;;;;;;8.93;4.47;;;;;;;;;;4843096;29;20031;-76
2022/10/08 09:03:40;;;;;;;8.23;3.95;;;;;;;;;;4841797;29;20042;-77
2022/10/08 09:06:13;;;;;;;8.45;4.60;;;;;;;;;;4844653;29;20097;-77
2022/10/08 09:08:39;;;;;;;7.70;4.13;;;;;;;;;;4843036;29;20042;-76
2022/10/08 09:11:06;;;;;;;9.60;4.22;;;;;;;;;;4841481;29;20038;-77
2022/10/08 09:13:32;;;;;;;9.57;4.00;;;;;;;;;;4845348;29;20041;-80
2022/10/08 09:15:58;;;;;;;10.38;4.28;;;;;;;;;;4843728;29;20082;-77
2022/10/08 09:18:25;;;;;;;11.85;4.40;;;;;;;;;;4840142;29;20060;-76
2022/10/08 09:20:51;;;;;;;14.07;4.60;;;;;;;;;;4842487;29;20481;-76
2022/10/08 09:23:22;;;;;;;7.60;4.40;;;;;;;;;;4842079;29;20030;-77
2022/10/08 09:26:12;;;;;;;5.97;4.57;;;;;;;;;;4875506;29;20036;-76
2022/10/08 09:28:41;;;;;;;8.57;4.60;;;;;;;;;;4889518;29;20071;-76
2022/10/08 09:31:31;;;;;;;12.70;4.40;;;;;;;;;;4896528;29;20495;-79
2022/10/08 09:34:14;;;;;;;5.25;3.88;;;;;;;;;;4900806;29;20061;-79
2022/10/08 09:36:46;;;;;;;10.18;4.45;;;;;;;;;;4906037;29;20037;-77
2022/10/08 09:39:20;;;;;;;10.23;4.35;;;;;;;;;;4912727;29;20016;-77
2022/10/08 09:42:03;;;;;;;6.40;4.20;;;;;;;;;;4905695;29;20048;-78
2022/10/08 09:44:57;;;;;;;7.30;4.50;;;;;;;;;;4915739;29;20107;-79
2022/10/08 09:47:26;;;;;;;9.70;4.13;;;;;;;;;;4861712;29;20030;-77
2022/10/08 09:50:12;;;;;;;9.48;4.20;;;;;;;;;;4863819;29;20077;-78
2022/10/08 09:52:39;;;;;;;7.78;4.40;;;;;;;;;;4863318;29;20050;-79
2022/10/08 09:55:22;;;;;;;7.80;4.32;;;;;;;;;;4862230;29;20030;-77
2022/10/08 09:58:04;;;;;;;11.48;4.50;;;;;;;;;;4828891;29;20058;-78
2022/10/08 10:00:34;;;;;;;7.80;3.90;;;;;;;;;;4860778;29;20069;-78
2022/10/08 10:03:16;;;;;;;7.05;3.75;;;;;;;;;;4863389;29;20015;-79
2022/10/08 10:05:49;;;;;;;8.63;4.20;;;;;;;;;;4863573;29;20038;-81
2022/10/08 10:08:35;;;;;;;11.60;4.03;;;;;;;;;;4855532;29;20057;-78
2022/10/08 10:11:01;;;;;;;10.05;4.30;;;;;;;;;;4805441;29;20055;-80
2022/10/08 10:13:48;;;;;;;6.95;4.10;;;;;;;;;;4806261;29;20050;-79
2022/10/08 10:16:17;;;;;;;8.13;4.45;;;;;;;;;;4806576;29;20080;-77
2022/10/08 10:18:49;;;;;;;9.20;4.47;;;;;;;;;;4799816;29;20034;-78
2022/10/08 10:21:17;;;;;;;9.82;5.38;;;;;;;;;;4797168;29;20100;-77
2022/10/08 10:24:03;;;;;;;14.18;4.20;;;;;;;;;;4810841;29;20035;-77
2022/10/08 10:26:40;;;;;;;7.80;3.80;;;;;;;;;;4814047;29;20065;-79
2022/10/08 10:29:15;;;;;;;8.65;4.82;;;;;;;;;;4815890;29;20050;-82
2022/10/08 10:31:50;;;;;;;8.73;4.95;;;;;;;;;;4822009;29;20039;-79
2022/10/08 10:34:26;;;;;;;7.35;4.30;;;;;;;;;;4823653;29;20027;-78
2022/10/08 10:36:55;;;;;;;9.38;5.15;;;;;;;;;;4822397;29;20090;-82
2022/10/08 10:39:30;;;;;;;7.85;4.28;;;;;;;;;;4826885;29;20034;-77
2022/10/08 10:42:02;;;;;;;10.77;4.32;;;;;;;;;;4823494;29;20050;-77
2022/10/08 10:44:35;;;;;;;9.02;4.38;;;;;;;;;;4823576;29;20038;-79
2022/10/08 10:47:10;;;;;;;12.77;7.72;;;;;;;;;;4821093;29;20119;-78
2022/10/08 10:49:38;;;;;;;34.17;23.40;;;;;;;;;;4874112;29;20046;-77
2022/10/08 10:52:16;;;;;;;12.50;5.68;;;;;;;;;;4874980;29;20045;-77
2022/10/08 10:54:43;;;;;;;10.70;5.40;;;;;;;;;;4877459;29;20058;-78
2022/10/08 10:57:16;;;;;;;14.38;8.93;;;;;;;;;;4880206;29;20286;-81
2022/10/08 10:59:46;;;;;;;8.38;4.53;;;;;;;;;;4879194;29;20061;-81
2022/10/08 11:02:49;;;;;;;13.75;5.30;;;;;;;;;;4879240;29;20033;-79
2022/10/08 11:05:38;;;;;;;8.57;4.38;;;;;;;;;;4873217;29;20110;-80
2022/10/08 11:08:24;;;;;;;7.57;3.90;;;;;;;;;;4890552;29;20045;-80
2022/10/08 11:11:09;;;;;;;9.15;4.38;;;;;;;;;;4895151;29;20036;-80
2022/10/08 11:13:54;;;;;;;14.85;6.18;;;;;;;;;;4891991;29;20045;-80
2022/10/08 11:16:24;;;;;;;16.88;6.70;;;;;;;;;;4881750;29;20009;-79
2022/10/08 11:18:59;;;;;;;8.73;5.57;;;;;;;;;;4890517;29;20022;-79
2022/10/08 11:21:55;;;;;;;6.65;4.22;;;;;;;;;;4871509;29;20052;-78
2022/10/08 11:24:49;;;;;;;8.75;4.28;;;;;;;;;;4885254;29;20068;-79
2022/10/08 11:27:42;;;;;;;14.32;9.77;;;;;;;;;;4876006;29;20060;-77
2022/10/08 11:30:17;;;;;;;7.93;5.45;;;;;;;;;;4878611;29;20049;-77
2022/10/08 11:32:46;;;;;;;8.98;3.92;;;;;;;;;;4882198;29;20033;-81
2022/10/08 11:35:12;;;;;;;7.35;3.90;;;;;;;;;;4865488;29;20082;-77
2022/10/08 11:37:44;;;;;;;8.15;5.28;;;;;;;;;;4879827;29;20032;-79
2022/10/08 11:40:20;;;;;;;9.80;4.10;;;;;;;;;;4899667;29;20040;-79
2022/10/08 11:43:05;;;;;;;6.38;4.72;;;;;;;;;;4899861;29;20053;-77
2022/10/08 11:45:32;;;;;;;8.90;3.83;;;;;;;;;;4897192;29;20028;-77
2022/10/08 11:48:00;;;;;;;15.52;7.57;;;;;;;;;;4896612;29;20037;-77
2022/10/08 11:50:33;;;;;;;14.00;6.85;;;;;;;;;;4898227;29;20032;-77
2022/10/08 11:53:14;;;;;;;8.55;4.10;;;;;;;;;;4907321;29;20140;-78
2022/10/08 11:55:55;;;;;;;9.95;4.40;;;;;;;;;;4909048;29;20028;-79
2022/10/08 11:58:35;;;;;;;10.30;4.22;;;;;;;;;;4912328;29;20025;-80
2022/10/08 12:01:06;;;;;;;10.20;3.88;;;;;;;;;;4913912;29;20044;-80
2022/10/08 12:03:35;;;;;;;7.38;4.22;;;;;;;;;;4911262;29;20495;-78
2022/10/08 12:06:13;;;;;;;8.07;3.90;;;;;;;;;;4912785;29;20375;-78
2022/10/08 12:08:51;;;;;;;8.07;4.20;;;;;;;;;;4912563;29;20664;-79
2022/10/08 12:11:36;;;;;;;6.93;3.60;;;;;;;;;;4912815;29;20062;-81
2022/10/08 12:14:12;;;;;;;4.93;3.10;;;;;;;;;;4910735;29;20032;-77
2022/10/08 12:16:48;;;;;;;4.90;3.60;;;;;;;;;;4908531;29;20084;-77
2022/10/08 12:19:35;;;;;;;6.43;3.63;;;;;;;;;;4901458;29;20088;-77
2022/10/08 12:22:02;;;;;;;8.55;3.65;;;;;;;;;;4912179;29;20048;-77
2022/10/08 12:24:57;;;;;;;10.00;4.10;;;;;;;;;;4909739;29;20032;-77
2022/10/08 12:27:25;;;;;;;6.10;3.83;;;;;;;;;;4857795;29;20473;-77
2022/10/08 12:30:07;;;;;;;7.97;4.03;;;;;;;;;;4859707;29;20025;-78
2022/10/08 12:32:39;;;;;;;6.25;3.78;;;;;;;;;;4852676;29;20159;-76
2022/10/08 12:35:20;;;;;;;6.43;3.63;;;;;;;;;;4859791;29;20558;-83
2022/10/08 12:37:49;;;;;;;7.63;3.90;;;;;;;;;;4869347;29;20046;-77
2022/10/08 12:40:27;;;;;;;8.00;3.97;;;;;;;;;;4861297;29;20034;-77
2022/10/08 12:42:57;;;;;;;7.90;4.00;;;;;;;;;;4868404;29;20070;-82
2022/10/08 12:45:29;;;;;;;7.03;3.83;;;;;;;;;;4852093;29;20137;-77
2022/10/08 12:48:01;;;;;;;7.20;4.10;;;;;;;;;;4829383;29;20490;-76
2022/10/08 12:50:29;;;;;;;8.35;4.00;;;;;;;;;;4850329;29;20486;-77
2022/10/08 12:53:01;;;;;;;6.78;3.63;;;;;;;;;;4862304;29;20057;-77
2022/10/08 12:55:27;;;;;;;9.80;3.80;;;;;;;;;;4862248;29;20041;-78
2022/10/08 12:57:53;;;;;;;7.00;3.90;;;;;;;;;;4852974;29;20042;-77
2022/10/08 13:00:21;;;;;;;6.65;3.95;;;;;;;;;;4850127;29;20086;-78
2022/10/08 13:03:19;;;;;;;14.15;3.85;;;;;;;;;;4864520;29;20110;-77
2022/10/08 13:05:46;;;;;;;6.63;3.50;;;;;;;;;;4837158;29;20070;-78
2022/10/08 13:08:32;;;;;;;5.50;3.78;;;;;;;;;;4848428;29;20038;-80
2022/10/08 13:11:00;;;;;;;8.90;3.75;;;;;;;;;;4847334;29;20591;-80
2022/10/08 13:13:49;;;;;;;8.88;3.60;;;;;;;;;;4848258;29;20050;-78
2022/10/08 13:16:23;;;;;;;6.50;3.40;;;;;;;;;;4841839;29;20409;-77
2022/10/08 13:18:52;;;;;;;24.23;15.45;;;;;;;;;;4843718;29;20041;-79
2022/10/08 13:21:35;;;;;;;5.63;3.70;;;;;;;;;;4845588;29;20061;-78
2022/10/08 13:24:02;;;;;;;;;;;;;;;;;;4847259;29;20067;-79
2022/10/08 13:26:45;;;;;;;7.40;4.25;;;;;;;;;;4856233;29;19966;-77
2022/10/08 13:29:23;;;;;;;7.45;3.83;;;;;;;;;;4843302;29;20042;-77
2022/10/08 13:31:56;;;;;;;9.32;4.00;;;;;;;;;;4840084;29;20056;-77
2022/10/08 13:34:23;;;;;;;10.13;4.20;;;;;;;;;;4845584;29;20599;-77
2022/10/08 13:36:53;;;;;;;9.38;4.20;;;;;;;;;;4861389;29;20077;-77
2022/10/08 13:39:20;;;;;;;8.80;3.88;;;;;;;;;;4860579;29;20096;-77
2022/10/08 13:41:50;;;;;;;9.45;4.63;;;;;;;;;;4873259;29;20056;-78
2022/10/08 13:44:16;;;;;;;9.32;5.10;;;;;;;;;;4900281;29;20024;-77
2022/10/08 13:46:42;;;;;;;9.13;4.10;;;;;;;;;;4900082;29;20046;-77
2022/10/08 13:49:18;;;;;;;13.60;6.72;;;;;;;;;;4901203;29;20033;-77
2022/10/08 13:51:44;;;;;;;6.57;4.53;;;;;;;;;;4882464;29;20155;-78
2022/10/08 13:54:10;;;;;;;10.38;4.40;;;;;;;;;;4899167;29;20032;-77
2022/10/08 13:56:38;;;;;;;6.53;4.55;;;;;;;;;;4906843;29;20035;-78
2022/10/08 13:59:04;;;;;;;13.32;4.47;;;;;;;;;;4904889;29;20088;-78
2022/10/08 14:01:30;;;;;;;11.65;4.72;;;;;;;;;;4889519;29;20036;-78
2022/10/08 14:03:56;;;;;;;10.60;4.78;;;;;;;;;;4906249;29;20021;-78
2022/10/08 14:06:24;;;;;;;6.28;4.50;;;;;;;;;;4902621;29;20063;-78
2022/10/08 14:08:50;;;;;;;6.57;4.68;;;;;;;;;;4885751;29;20040;-76
2022/10/08 14:11:16;;;;;;;6.60;4.53;;;;;;;;;;4900205;29;20033;-77
2022/10/08 14:13:44;;;;;;;10.63;4.57;;;;;;;;;;4883109;29;20465;-77
2022/10/08 14:16:12;;;;;;;8.63;4.32;;;;;;;;;;4900149;29;20029;-77
2022/10/08 14:18:38;;;;;;;8.23;4.55;;;;;;;;;;4898993;29;20027;-77
2022/10/08 14:21:05;;;;;;;8.55;4.35;;;;;;;;;;4882241;29;20391;-77
2022/10/08 14:23:31;;;;;;;8.15;4.95;;;;;;;;;;4898863;29;20080;-77
2022/10/08 14:25:57;;;;;;;6.18;4.10;;;;;;;;;;4882066;29;20025;-77
2022/10/08 14:28:24;;;;;;;7.38;4.30;;;;;;;;;;4888181;29;20029;-76
2022/10/08 14:30:50;;;;;;;9.60;4.35;;;;;;;;;;4899248;29;20040;-77
2022/10/08 14:33:16;;;;;;;6.70;4.43;;;;;;;;;;4898990;29;20024;-77
2022/10/08 14:35:42;;;;;;;20.42;4.90;;;;;;;;;;4898747;29;20171;-77
2022/10/08 14:38:08;;;;;;;11.77;7.70;;;;;;;;;;4898531;29;20025;-77
2022/10/08 14:40:36;;;;;;;7.82;4.88;;;;;;;;;;4896991;29;20040;-77
2022/10/08 14:43:02;;;;;;;14.13;5.70;;;;;;;;;;4898988;29;20116;-76
2022/10/08 14:45:28;;;;;;;22.50;6.45;;;;;;;;;;4898160;29;20029;-77
2022/10/08 14:47:54;;;;;;;11.60;5.30;;;;;;;;;;4898671;29;20136;-77
2022/10/08 14:50:20;;;;;;;9.45;4.80;;;;;;;;;;4899237;29;20542;-78
2022/10/08 14:52:46;;;;;;;15.50;4.75;;;;;;;;;;4898759;29;20060;-77
2022/10/08 14:55:14;;;;;;;10.80;4.60;;;;;;;;;;4880632;29;20083;-77
2022/10/08 14:57:40;;;;;;;9.82;4.70;;;;;;;;;;4886281;29;20033;-77